sensor_id;sensor_type;location;lat;lon;timestamp;P1;durP1;ratioP1;P2;durP2;ratioP2
46651;SDS011;32377;52.182;5.398;2022-08-05T00:01:01;6.15;;;3.03;;
46651;SDS011;32377;52.182;5.398;2022-08-05T00:03:34;10.70;;;3.22;;
46651;SDS011;32377;52.182;5.398;2022-08-05T00:06:00;7.85;;;3.17;;
46651;SDS011;32377;52.182;5.398;2022-08-05T00:08:25;11.32;;;3.28;;
46651;SDS011;32377;52.182;5.398;2022-08-05T00:10:51;7.70;;;2.78;;
46651;SDS011;32377;52.182;5.398;2022-08-05T00:13:16;7.95;;;3.25;;
46651;SDS011;32377;52.182;5.398;2022-08-05T00:15:42;6.82;;;3.35;;
46651;SDS011;32377;52.182;5.398;2022-08-05T00:18:07;5.93;;;2.83;;
46651;SDS011;32377;52.182;5.398;2022-08-05T00:20:33;11.82;;;3.08;;
46651;SDS011;32377;52.182;5.398;2022-08-05T00:22:58;9.23;;;3.13;;
46651;SDS011;32377;52.182;5.398;2022-08-05T00:25:24;9.15;;;3.20;;
46651;SDS011;32377;52.182;5.398;2022-08-05T00:27:50;5.80;;;3.17;;
46651;SDS011;32377;52.182;5.398;2022-08-05T00:30:15;9.68;;;3.35;;
46651;SDS011;32377;52.182;5.398;2022-08-05T00:32:41;9.63;;;3.35;;
46651;SDS011;32377;52.182;5.398;2022-08-05T00:35:07;11.18;;;3.58;;
46651;SDS011;32377;52.182;5.398;2022-08-05T00:37:33;8.05;;;3.17;;
46651;SDS011;32377;52.182;5.398;2022-08-05T00:39:58;12.40;;;3.95;;
46651;SDS011;32377;52.182;5.398;2022-08-05T00:45:00;8.85;;;3.75;;
46651;SDS011;32377;52.182;5.398;2022-08-05T00:47:26;7.45;;;3.10;;
46651;SDS011;32377;52.182;5.398;2022-08-05T00:49:52;9.07;;;3.17;;
46651;SDS011;32377;52.182;5.398;2022-08-05T00:52:18;10.55;;;3.30;;
46651;SDS011;32377;52.182;5.398;2022-08-05T00:54:44;9.57;;;2.92;;
46651;SDS011;32377;52.182;5.398;2022-08-05T00:57:09;9.00;;;3.40;;
46651;SDS011;32377;52.182;5.398;2022-08-05T00:59:35;8.88;;;3.03;;
46651;SDS011;32377;52.182;5.398;2022-08-05T01:02:01;8.18;;;2.65;;
46651;SDS011;32377;52.182;5.398;2022-08-05T01:04:26;10.55;;;3.20;;
46651;SDS011;32377;52.182;5.398;2022-08-05T01:06:52;8.90;;;3.00;;
46651;SDS011;32377;52.182;5.398;2022-08-05T01:09:17;9.13;;;2.67;;
46651;SDS011;32377;52.182;5.398;2022-08-05T01:11:43;7.80;;;2.85;;
46651;SDS011;32377;52.182;5.398;2022-08-05T01:14:20;10.45;;;3.40;;
46651;SDS011;32377;52.182;5.398;2022-08-05T01:17:26;7.60;;;2.85;;
46651;SDS011;32377;52.182;5.398;2022-08-05T01:20:11;7.80;;;2.97;;
46651;SDS011;32377;52.182;5.398;2022-08-05T01:26:00;8.75;;;3.47;;
46651;SDS011;32377;52.182;5.398;2022-08-05T01:28:32;7.85;;;2.47;;
46651;SDS011;32377;52.182;5.398;2022-08-05T01:36:39;10.07;;;2.47;;
46651;SDS011;32377;52.182;5.398;2022-08-05T01:39:26;8.05;;;2.47;;
46651;SDS011;32377;52.182;5.398;2022-08-05T01:41:55;5.28;;;2.25;;
46651;SDS011;32377;52.182;5.398;2022-08-05T01:44:22;8.30;;;3.00;;
46651;SDS011;32377;52.182;5.398;2022-08-05T01:46:49;8.48;;;2.60;;
46651;SDS011;32377;52.182;5.398;2022-08-05T01:49:19;6.75;;;2.47;;
46651;SDS011;32377;52.182;5.398;2022-08-05T01:51:46;8.27;;;2.65;;
46651;SDS011;32377;52.182;5.398;2022-08-05T01:54:14;10.80;;;2.63;;
46651;SDS011;32377;52.182;5.398;2022-08-05T01:56:41;6.05;;;2.45;;
46651;SDS011;32377;52.182;5.398;2022-08-05T01:59:09;9.57;;;2.80;;
46651;SDS011;32377;52.182;5.398;2022-08-05T02:01:37;7.00;;;2.50;;
46651;SDS011;32377;52.182;5.398;2022-08-05T02:04:04;10.88;;;3.15;;
46651;SDS011;32377;52.182;5.398;2022-08-05T02:06:31;8.45;;;2.47;;
46651;SDS011;32377;52.182;5.398;2022-08-05T02:08:57;11.20;;;2.20;;
46651;SDS011;32377;52.182;5.398;2022-08-05T02:11:23;9.43;;;2.90;;
46651;SDS011;32377;52.182;5.398;2022-08-05T02:13:53;8.55;;;2.55;;
46651;SDS011;32377;52.182;5.398;2022-08-05T02:16:26;13.48;;;3.55;;
46651;SDS011;32377;52.182;5.398;2022-08-05T02:19:02;10.45;;;3.13;;
46651;SDS011;32377;52.182;5.398;2022-08-05T02:21:53;9.20;;;2.97;;
46651;SDS011;32377;52.182;5.398;2022-08-05T02:24:26;10.38;;;3.33;;
46651;SDS011;32377;52.182;5.398;2022-08-05T02:27:02;9.63;;;2.97;;
46651;SDS011;32377;52.182;5.398;2022-08-05T02:29:30;9.38;;;3.10;;
46651;SDS011;32377;52.182;5.398;2022-08-05T02:31:59;7.95;;;2.50;;
46651;SDS011;32377;52.182;5.398;2022-08-05T02:34:26;7.63;;;2.90;;
46651;SDS011;32377;52.182;5.398;2022-08-05T02:36:56;8.20;;;2.80;;
46651;SDS011;32377;52.182;5.398;2022-08-05T02:39:24;8.00;;;3.25;;
46651;SDS011;32377;52.182;5.398;2022-08-05T02:41:53;9.40;;;3.17;;
46651;SDS011;32377;52.182;5.398;2022-08-05T02:44:20;6.63;;;2.65;;
46651;SDS011;32377;52.182;5.398;2022-08-05T02:46:48;4.30;;;2.55;;
46651;SDS011;32377;52.182;5.398;2022-08-05T02:49:15;7.95;;;2.63;;
46651;SDS011;32377;52.182;5.398;2022-08-05T02:51:41;7.85;;;2.95;;
46651;SDS011;32377;52.182;5.398;2022-08-05T02:54:08;4.45;;;2.70;;
46651;SDS011;32377;52.182;5.398;2022-08-05T02:56:35;8.93;;;3.20;;
46651;SDS011;32377;52.182;5.398;2022-08-05T02:59:01;7.43;;;3.10;;
46651;SDS011;32377;52.182;5.398;2022-08-05T03:01:28;10.13;;;3.15;;
46651;SDS011;32377;52.182;5.398;2022-08-05T03:03:57;12.77;;;3.15;;
46651;SDS011;32377;52.182;5.398;2022-08-05T03:06:25;8.35;;;2.97;;
46651;SDS011;32377;52.182;5.398;2022-08-05T03:08:51;8.77;;;3.55;;
46651;SDS011;32377;52.182;5.398;2022-08-05T03:13:44;10.15;;;3.22;;
46651;SDS011;32377;52.182;5.398;2022-08-05T03:16:10;9.43;;;3.55;;
46651;SDS011;32377;52.182;5.398;2022-08-05T03:18:35;7.22;;;3.08;;
46651;SDS011;32377;52.182;5.398;2022-08-05T03:21:01;7.75;;;3.58;;
46651;SDS011;32377;52.182;5.398;2022-08-05T03:23:26;12.63;;;3.28;;
46651;SDS011;32377;52.182;5.398;2022-08-05T03:25:53;11.23;;;2.83;;
46651;SDS011;32377;52.182;5.398;2022-08-05T03:28:19;6.32;;;2.97;;
46651;SDS011;32377;52.182;5.398;2022-08-05T03:30:45;10.52;;;3.47;;
46651;SDS011;32377;52.182;5.398;2022-08-05T03:33:12;11.45;;;3.65;;
46651;SDS011;32377;52.182;5.398;2022-08-05T03:35:38;10.05;;;3.15;;
46651;SDS011;32377;52.182;5.398;2022-08-05T03:38:03;7.47;;;3.22;;
46651;SDS011;32377;52.182;5.398;2022-08-05T03:40:29;18.27;;;3.28;;
46651;SDS011;32377;52.182;5.398;2022-08-05T03:42:55;5.95;;;2.72;;
46651;SDS011;32377;52.182;5.398;2022-08-05T03:45:20;6.68;;;2.97;;
46651;SDS011;32377;52.182;5.398;2022-08-05T03:47:46;7.50;;;3.10;;
46651;SDS011;32377;52.182;5.398;2022-08-05T03:50:11;7.78;;;2.75;;
46651;SDS011;32377;52.182;5.398;2022-08-05T03:52:41;11.48;;;3.58;;
46651;SDS011;32377;52.182;5.398;2022-08-05T03:55:16;8.88;;;2.72;;
46651;SDS011;32377;52.182;5.398;2022-08-05T03:57:48;13.98;;;3.70;;
46651;SDS011;32377;52.182;5.398;2022-08-05T04:00:16;8.63;;;3.72;;
46651;SDS011;32377;52.182;5.398;2022-08-05T04:02:43;10.00;;;3.38;;
46651;SDS011;32377;52.182;5.398;2022-08-05T04:05:12;12.45;;;3.13;;
46651;SDS011;32377;52.182;5.398;2022-08-05T04:07:40;6.93;;;3.40;;
46651;SDS011;32377;52.182;5.398;2022-08-05T04:10:06;11.18;;;3.58;;
46651;SDS011;32377;52.182;5.398;2022-08-05T04:12:32;7.93;;;3.90;;
46651;SDS011;32377;52.182;5.398;2022-08-05T04:14:59;10.52;;;3.75;;
46651;SDS011;32377;52.182;5.398;2022-08-05T04:17:24;7.85;;;3.70;;
46651;SDS011;32377;52.182;5.398;2022-08-05T04:19:51;12.85;;;3.67;;
46651;SDS011;32377;52.182;5.398;2022-08-05T04:22:16;9.55;;;4.00;;
46651;SDS011;32377;52.182;5.398;2022-08-05T04:24:42;10.77;;;3.38;;
46651;SDS011;32377;52.182;5.398;2022-08-05T04:27:09;10.07;;;3.45;;
46651;SDS011;32377;52.182;5.398;2022-08-05T04:29:36;14.90;;;3.80;;
46651;SDS011;32377;52.182;5.398;2022-08-05T04:32:01;10.57;;;4.03;;
46651;SDS011;32377;52.182;5.398;2022-08-05T04:34:27;16.65;;;5.00;;
46651;SDS011;32377;52.182;5.398;2022-08-05T04:36:53;18.17;;;5.20;;
46651;SDS011;32377;52.182;5.398;2022-08-05T04:39:18;11.73;;;4.68;;
46651;SDS011;32377;52.182;5.398;2022-08-05T04:41:45;10.13;;;4.25;;
46651;SDS011;32377;52.182;5.398;2022-08-05T04:44:12;15.65;;;5.30;;
46651;SDS011;32377;52.182;5.398;2022-08-05T04:46:37;10.55;;;4.28;;
46651;SDS011;32377;52.182;5.398;2022-08-05T04:49:03;13.93;;;4.60;;
46651;SDS011;32377;52.182;5.398;2022-08-05T04:51:30;11.13;;;4.38;;
46651;SDS011;32377;52.182;5.398;2022-08-05T04:53:56;8.57;;;3.70;;
46651;SDS011;32377;52.182;5.398;2022-08-05T04:56:22;8.15;;;3.47;;
46651;SDS011;32377;52.182;5.398;2022-08-05T04:58:48;11.23;;;3.85;;
46651;SDS011;32377;52.182;5.398;2022-08-05T05:01:14;9.52;;;3.60;;
46651;SDS011;32377;52.182;5.398;2022-08-05T05:03:39;10.43;;;3.13;;
46651;SDS011;32377;52.182;5.398;2022-08-05T05:06:05;9.25;;;3.70;;
46651;SDS011;32377;52.182;5.398;2022-08-05T05:08:35;10.00;;;3.35;;
46651;SDS011;32377;52.182;5.398;2022-08-05T05:11:01;8.15;;;3.30;;
46651;SDS011;32377;52.182;5.398;2022-08-05T05:13:27;9.30;;;3.28;;
46651;SDS011;32377;52.182;5.398;2022-08-05T05:15:52;8.88;;;3.40;;
46651;SDS011;32377;52.182;5.398;2022-08-05T05:18:18;6.50;;;2.95;;
46651;SDS011;32377;52.182;5.398;2022-08-05T05:20:44;9.20;;;2.75;;
46651;SDS011;32377;52.182;5.398;2022-08-05T05:23:10;6.88;;;2.67;;
46651;SDS011;32377;52.182;5.398;2022-08-05T05:25:39;7.65;;;2.88;;
46651;SDS011;32377;52.182;5.398;2022-08-05T05:28:05;6.10;;;2.72;;
46651;SDS011;32377;52.182;5.398;2022-08-05T05:30:31;5.75;;;2.75;;
46651;SDS011;32377;52.182;5.398;2022-08-05T05:32:57;5.05;;;2.70;;
46651;SDS011;32377;52.182;5.398;2022-08-05T05:35:23;5.55;;;2.85;;
46651;SDS011;32377;52.182;5.398;2022-08-05T05:37:50;8.45;;;2.65;;
46651;SDS011;32377;52.182;5.398;2022-08-05T05:40:20;16.90;;;3.25;;
46651;SDS011;32377;52.182;5.398;2022-08-05T05:42:47;5.80;;;2.72;;
46651;SDS011;32377;52.182;5.398;2022-08-05T05:45:13;5.95;;;2.58;;
46651;SDS011;32377;52.182;5.398;2022-08-05T05:47:39;8.90;;;3.42;;
46651;SDS011;32377;52.182;5.398;2022-08-05T05:50:06;7.60;;;2.78;;
46651;SDS011;32377;52.182;5.398;2022-08-05T05:52:33;7.45;;;2.75;;
46651;SDS011;32377;52.182;5.398;2022-08-05T05:54:59;5.32;;;3.08;;
46651;SDS011;32377;52.182;5.398;2022-08-05T05:57:25;7.00;;;3.03;;
46651;SDS011;32377;52.182;5.398;2022-08-05T05:59:51;6.80;;;2.78;;
46651;SDS011;32377;52.182;5.398;2022-08-05T06:02:16;8.02;;;3.10;;
46651;SDS011;32377;52.182;5.398;2022-08-05T06:04:42;6.93;;;3.28;;
46651;SDS011;32377;52.182;5.398;2022-08-05T06:07:08;8.23;;;2.95;;
46651;SDS011;32377;52.182;5.398;2022-08-05T06:09:33;6.15;;;2.78;;
46651;SDS011;32377;52.182;5.398;2022-08-05T06:11:59;4.18;;;2.25;;
46651;SDS011;32377;52.182;5.398;2022-08-05T06:14:25;7.15;;;2.58;;
46651;SDS011;32377;52.182;5.398;2022-08-05T06:16:51;10.18;;;2.33;;
46651;SDS011;32377;52.182;5.398;2022-08-05T06:19:16;9.30;;;2.58;;
46651;SDS011;32377;52.182;5.398;2022-08-05T06:21:42;5.10;;;2.00;;
46651;SDS011;32377;52.182;5.398;2022-08-05T06:24:07;6.05;;;2.40;;
46651;SDS011;32377;52.182;5.398;2022-08-05T06:26:33;5.80;;;2.10;;
46651;SDS011;32377;52.182;5.398;2022-08-05T06:28:59;3.22;;;1.83;;
46651;SDS011;32377;52.182;5.398;2022-08-05T06:31:24;8.95;;;2.28;;
46651;SDS011;32377;52.182;5.398;2022-08-05T06:33:50;10.38;;;2.35;;
46651;SDS011;32377;52.182;5.398;2022-08-05T06:36:16;7.07;;;1.95;;
46651;SDS011;32377;52.182;5.398;2022-08-05T06:38:42;5.10;;;1.80;;
46651;SDS011;32377;52.182;5.398;2022-08-05T06:41:07;6.10;;;1.92;;
46651;SDS011;32377;52.182;5.398;2022-08-05T06:43:33;5.93;;;2.10;;
46651;SDS011;32377;52.182;5.398;2022-08-05T06:45:58;4.57;;;1.70;;
46651;SDS011;32377;52.182;5.398;2022-08-05T06:48:24;7.70;;;1.55;;
46651;SDS011;32377;52.182;5.398;2022-08-05T06:50:50;4.85;;;1.73;;
46651;SDS011;32377;52.182;5.398;2022-08-05T06:53:16;4.47;;;1.67;;
46651;SDS011;32377;52.182;5.398;2022-08-05T06:55:41;7.50;;;1.83;;
46651;SDS011;32377;52.182;5.398;2022-08-05T06:58:07;5.07;;;1.80;;
46651;SDS011;32377;52.182;5.398;2022-08-05T07:00:33;7.45;;;2.03;;
46651;SDS011;32377;52.182;5.398;2022-08-05T07:02:58;3.30;;;1.33;;
46651;SDS011;32377;52.182;5.398;2022-08-05T07:05:24;4.78;;;1.75;;
46651;SDS011;32377;52.182;5.398;2022-08-05T07:07:50;2.85;;;1.30;;
46651;SDS011;32377;52.182;5.398;2022-08-05T07:10:15;3.85;;;1.45;;
46651;SDS011;32377;52.182;5.398;2022-08-05T07:12:41;5.65;;;1.33;;
46651;SDS011;32377;52.182;5.398;2022-08-05T07:15:26;3.78;;;1.10;;
46651;SDS011;32377;52.182;5.398;2022-08-05T07:18:10;2.40;;;1.38;;
46651;SDS011;32377;52.182;5.398;2022-08-05T07:20:35;5.10;;;1.27;;
46651;SDS011;32377;52.182;5.398;2022-08-05T07:23:01;3.40;;;1.30;;
46651;SDS011;32377;52.182;5.398;2022-08-05T07:25:26;4.00;;;1.10;;
46651;SDS011;32377;52.182;5.398;2022-08-05T07:27:52;2.50;;;1.08;;
46651;SDS011;32377;52.182;5.398;2022-08-05T07:30:19;3.50;;;1.02;;
46651;SDS011;32377;52.182;5.398;2022-08-05T07:32:44;2.25;;;0.80;;
46651;SDS011;32377;52.182;5.398;2022-08-05T07:35:10;1.48;;;0.80;;
46651;SDS011;32377;52.182;5.398;2022-08-05T07:37:37;3.85;;;0.88;;
46651;SDS011;32377;52.182;5.398;2022-08-05T07:40:05;2.13;;;0.75;;
46651;SDS011;32377;52.182;5.398;2022-08-05T07:42:32;2.40;;;0.90;;
46651;SDS011;32377;52.182;5.398;2022-08-05T07:44:57;2.88;;;1.23;;
46651;SDS011;32377;52.182;5.398;2022-08-05T07:47:23;3.05;;;0.85;;
46651;SDS011;32377;52.182;5.398;2022-08-05T07:49:49;3.85;;;1.00;;
46651;SDS011;32377;52.182;5.398;2022-08-05T07:52:18;1.38;;;0.90;;
46651;SDS011;32377;52.182;5.398;2022-08-05T07:54:44;3.63;;;1.20;;
46651;SDS011;32377;52.182;5.398;2022-08-05T07:57:10;1.10;;;0.60;;
46651;SDS011;32377;52.182;5.398;2022-08-05T07:59:35;3.47;;;0.80;;
46651;SDS011;32377;52.182;5.398;2022-08-05T08:02:01;4.15;;;1.10;;
46651;SDS011;32377;52.182;5.398;2022-08-05T08:04:26;3.35;;;0.70;;
46651;SDS011;32377;52.182;5.398;2022-08-05T08:06:53;2.75;;;0.70;;
46651;SDS011;32377;52.182;5.398;2022-08-05T08:09:19;2.95;;;1.05;;
46651;SDS011;32377;52.182;5.398;2022-08-05T08:11:45;3.15;;;0.70;;
46651;SDS011;32377;52.182;5.398;2022-08-05T08:14:10;2.05;;;0.80;;
46651;SDS011;32377;52.182;5.398;2022-08-05T08:16:36;0.90;;;0.50;;
46651;SDS011;32377;52.182;5.398;2022-08-05T08:19:01;1.90;;;0.90;;
46651;SDS011;32377;52.182;5.398;2022-08-05T08:21:27;3.55;;;0.82;;
46651;SDS011;32377;52.182;5.398;2022-08-05T08:23:52;4.13;;;0.98;;
46651;SDS011;32377;52.182;5.398;2022-08-05T08:26:18;1.77;;;0.90;;
46651;SDS011;32377;52.182;5.398;2022-08-05T08:28:45;5.35;;;1.13;;
46651;SDS011;32377;52.182;5.398;2022-08-05T08:31:10;3.22;;;0.95;;
46651;SDS011;32377;52.182;5.398;2022-08-05T08:33:36;2.45;;;0.63;;
46651;SDS011;32377;52.182;5.398;2022-08-05T08:36:02;5.95;;;0.80;;
46651;SDS011;32377;52.182;5.398;2022-08-05T08:38:27;3.40;;;0.57;;
46651;SDS011;32377;52.182;5.398;2022-08-05T08:40:53;4.50;;;0.82;;
46651;SDS011;32377;52.182;5.398;2022-08-05T08:43:19;3.80;;;1.00;;
46651;SDS011;32377;52.182;5.398;2022-08-05T08:45:46;4.72;;;0.77;;
46651;SDS011;32377;52.182;5.398;2022-08-05T08:48:14;4.63;;;0.90;;
46651;SDS011;32377;52.182;5.398;2022-08-05T08:50:40;1.58;;;0.75;;
46651;SDS011;32377;52.182;5.398;2022-08-05T08:53:07;2.58;;;0.60;;
46651;SDS011;32377;52.182;5.398;2022-08-05T08:55:35;1.35;;;0.70;;
46651;SDS011;32377;52.182;5.398;2022-08-05T08:58:02;1.65;;;0.70;;
46651;SDS011;32377;52.182;5.398;2022-08-05T09:00:28;1.52;;;0.68;;
46651;SDS011;32377;52.182;5.398;2022-08-05T09:02:54;0.82;;;0.50;;
46651;SDS011;32377;52.182;5.398;2022-08-05T09:05:21;2.70;;;0.60;;
46651;SDS011;32377;52.182;5.398;2022-08-05T09:07:47;4.22;;;1.15;;
46651;SDS011;32377;52.182;5.398;2022-08-05T09:10:15;2.55;;;0.70;;
46651;SDS011;32377;52.182;5.398;2022-08-05T09:12:40;1.58;;;0.45;;
46651;SDS011;32377;52.182;5.398;2022-08-05T09:15:06;1.88;;;0.68;;
46651;SDS011;32377;52.182;5.398;2022-08-05T09:17:32;2.58;;;0.95;;
46651;SDS011;32377;52.182;5.398;2022-08-05T09:19:58;2.20;;;0.80;;
46651;SDS011;32377;52.182;5.398;2022-08-05T09:22:24;4.30;;;0.95;;
46651;SDS011;32377;52.182;5.398;2022-08-05T09:24:59;4.03;;;0.65;;
46651;SDS011;32377;52.182;5.398;2022-08-05T09:27:30;1.52;;;1.00;;
46651;SDS011;32377;52.182;5.398;2022-08-05T09:29:59;2.00;;;0.57;;
46651;SDS011;32377;52.182;5.398;2022-08-05T09:32:35;3.03;;;0.70;;
46651;SDS011;32377;52.182;5.398;2022-08-05T09:35:11;3.97;;;0.90;;
46651;SDS011;32377;52.182;5.398;2022-08-05T09:37:50;3.05;;;0.70;;
46651;SDS011;32377;52.182;5.398;2022-08-05T09:40:30;1.60;;;0.65;;
46651;SDS011;32377;52.182;5.398;2022-08-05T09:42:58;2.28;;;0.70;;
46651;SDS011;32377;52.182;5.398;2022-08-05T09:45:35;1.42;;;0.63;;
46651;SDS011;32377;52.182;5.398;2022-08-05T09:50:57;3.55;;;0.85;;
46651;SDS011;32377;52.182;5.398;2022-08-05T09:53:25;1.02;;;0.40;;
46651;SDS011;32377;52.182;5.398;2022-08-05T09:55:58;6.32;;;0.80;;
46651;SDS011;32377;52.182;5.398;2022-08-05T09:58:25;1.13;;;0.50;;
46651;SDS011;32377;52.182;5.398;2022-08-05T10:01:04;2.72;;;0.32;;
46651;SDS011;32377;52.182;5.398;2022-08-05T10:03:35;7.57;;;0.90;;
46651;SDS011;32377;52.182;5.398;2022-08-05T10:06:05;1.30;;;0.43;;
46651;SDS011;32377;52.182;5.398;2022-08-05T10:08:32;1.27;;;0.57;;
46651;SDS011;32377;52.182;5.398;2022-08-05T10:11:01;3.28;;;0.70;;
46651;SDS011;32377;52.182;5.398;2022-08-05T10:13:30;2.40;;;0.57;;
46651;SDS011;32377;52.182;5.398;2022-08-05T10:16:02;5.45;;;0.80;;
46651;SDS011;32377;52.182;5.398;2022-08-05T10:18:29;4.55;;;0.82;;
46651;SDS011;32377;52.182;5.398;2022-08-05T10:20:58;1.48;;;0.40;;
46651;SDS011;32377;52.182;5.398;2022-08-05T10:23:30;1.20;;;0.50;;
46651;SDS011;32377;52.182;5.398;2022-08-05T10:26:01;1.50;;;0.50;;
46651;SDS011;32377;52.182;5.398;2022-08-05T10:28:29;1.10;;;0.40;;
46651;SDS011;32377;52.182;5.398;2022-08-05T10:30:55;0.82;;;0.45;;
46651;SDS011;32377;52.182;5.398;2022-08-05T10:33:23;1.58;;;0.50;;
46651;SDS011;32377;52.182;5.398;2022-08-05T10:35:51;2.08;;;0.45;;
46651;SDS011;32377;52.182;5.398;2022-08-05T10:38:18;3.83;;;0.50;;
46651;SDS011;32377;52.182;5.398;2022-08-05T10:46:08;1.27;;;0.40;;
46651;SDS011;32377;52.182;5.398;2022-08-05T10:51:22;1.50;;;0.50;;
46651;SDS011;32377;52.182;5.398;2022-08-05T10:56:16;2.40;;;0.60;;
46651;SDS011;32377;52.182;5.398;2022-08-05T11:01:34;0.93;;;0.45;;
46651;SDS011;32377;52.182;5.398;2022-08-05T11:09:43;1.42;;;0.40;;
46651;SDS011;32377;52.182;5.398;2022-08-05T11:12:43;2.47;;;0.47;;
46651;SDS011;32377;52.182;5.398;2022-08-05T11:17:42;1.17;;;0.50;;
46651;SDS011;32377;52.182;5.398;2022-08-05T11:22:56;5.20;;;0.60;;
46651;SDS011;32377;52.182;5.398;2022-08-05T11:25:32;1.83;;;0.63;;
46651;SDS011;32377;52.182;5.398;2022-08-05T11:33:38;2.95;;;0.70;;
46651;SDS011;32377;52.182;5.398;2022-08-05T11:36:20;3.30;;;0.57;;
46651;SDS011;32377;52.182;5.398;2022-08-05T11:39:02;1.77;;;0.40;;
46651;SDS011;32377;52.182;5.398;2022-08-05T11:41:29;1.70;;;0.60;;
46651;SDS011;32377;52.182;5.398;2022-08-05T11:44:09;1.80;;;0.60;;
46651;SDS011;32377;52.182;5.398;2022-08-05T11:46:52;2.88;;;0.52;;
46651;SDS011;32377;52.182;5.398;2022-08-05T11:49:18;3.55;;;0.60;;
46651;SDS011;32377;52.182;5.398;2022-08-05T11:51:47;1.10;;;0.40;;
46651;SDS011;32377;52.182;5.398;2022-08-05T11:54:27;3.50;;;0.60;;
46651;SDS011;32377;52.182;5.398;2022-08-05T11:56:55;1.35;;;0.50;;
46651;SDS011;32377;52.182;5.398;2022-08-05T11:59:22;0.88;;;0.47;;
46651;SDS011;32377;52.182;5.398;2022-08-05T12:01:59;1.83;;;0.40;;
46651;SDS011;32377;52.182;5.398;2022-08-05T12:04:27;2.15;;;0.57;;
46651;SDS011;32377;52.182;5.398;2022-08-05T12:07:03;1.70;;;0.40;;
46651;SDS011;32377;52.182;5.398;2022-08-05T12:09:30;2.67;;;0.63;;
46651;SDS011;32377;52.182;5.398;2022-08-05T12:12:01;0.30;;;0.30;;
46651;SDS011;32377;52.182;5.398;2022-08-05T12:14:39;1.55;;;0.50;;
46651;SDS011;32377;52.182;5.398;2022-08-05T12:17:06;2.50;;;0.55;;
46651;SDS011;32377;52.182;5.398;2022-08-05T12:19:40;2.97;;;0.50;;
46651;SDS011;32377;52.182;5.398;2022-08-05T12:22:11;6.28;;;0.70;;
46651;SDS011;32377;52.182;5.398;2022-08-05T12:24:41;3.65;;;0.60;;
46651;SDS011;32377;52.182;5.398;2022-08-05T12:27:09;3.95;;;0.80;;
46651;SDS011;32377;52.182;5.398;2022-08-05T12:29:35;2.28;;;0.60;;
46651;SDS011;32377;52.182;5.398;2022-08-05T12:32:01;4.15;;;0.77;;
46651;SDS011;32377;52.182;5.398;2022-08-05T12:34:28;3.65;;;0.90;;
46651;SDS011;32377;52.182;5.398;2022-08-05T12:36:59;3.03;;;0.60;;
46651;SDS011;32377;52.182;5.398;2022-08-05T12:39:31;2.80;;;0.68;;
46651;SDS011;32377;52.182;5.398;2022-08-05T12:41:57;3.55;;;0.70;;
46651;SDS011;32377;52.182;5.398;2022-08-05T12:44:24;1.85;;;0.40;;
46651;SDS011;32377;52.182;5.398;2022-08-05T12:46:51;3.67;;;0.77;;
46651;SDS011;32377;52.182;5.398;2022-08-05T12:49:18;3.88;;;0.85;;
46651;SDS011;32377;52.182;5.398;2022-08-05T12:51:51;1.13;;;0.50;;
46651;SDS011;32377;52.182;5.398;2022-08-05T12:54:25;0.85;;;0.50;;
46651;SDS011;32377;52.182;5.398;2022-08-05T12:56:59;0.75;;;0.50;;
46651;SDS011;32377;52.182;5.398;2022-08-05T12:59:31;2.45;;;0.73;;
46651;SDS011;32377;52.182;5.398;2022-08-05T13:02:23;4.90;;;0.60;;
46651;SDS011;32377;52.182;5.398;2022-08-05T13:04:50;3.40;;;0.90;;
46651;SDS011;32377;52.182;5.398;2022-08-05T13:07:18;4.93;;;0.82;;
46651;SDS011;32377;52.182;5.398;2022-08-05T13:09:50;2.45;;;0.50;;
46651;SDS011;32377;52.182;5.398;2022-08-05T13:12:17;4.57;;;0.65;;
46651;SDS011;32377;52.182;5.398;2022-08-05T13:14:48;2.42;;;1.05;;
46651;SDS011;32377;52.182;5.398;2022-08-05T13:17:21;3.72;;;0.82;;
46651;SDS011;32377;52.182;5.398;2022-08-05T13:19:58;2.53;;;0.70;;
46651;SDS011;32377;52.182;5.398;2022-08-05T13:22:29;2.20;;;0.70;;
46651;SDS011;32377;52.182;5.398;2022-08-05T13:24:55;2.53;;;0.98;;
46651;SDS011;32377;52.182;5.398;2022-08-05T13:27:26;4.00;;;0.90;;
46651;SDS011;32377;52.182;5.398;2022-08-05T13:29:51;1.80;;;0.70;;
46651;SDS011;32377;52.182;5.398;2022-08-05T13:32:17;3.10;;;1.02;;
46651;SDS011;32377;52.182;5.398;2022-08-05T13:34:43;4.07;;;0.70;;
46651;SDS011;32377;52.182;5.398;2022-08-05T13:37:08;4.72;;;0.73;;
46651;SDS011;32377;52.182;5.398;2022-08-05T13:39:34;4.15;;;0.55;;
46651;SDS011;32377;52.182;5.398;2022-08-05T13:41:59;2.95;;;0.60;;
46651;SDS011;32377;52.182;5.398;2022-08-05T13:44:25;2.13;;;0.60;;
46651;SDS011;32377;52.182;5.398;2022-08-05T13:46:50;3.65;;;0.63;;
46651;SDS011;32377;52.182;5.398;2022-08-05T13:49:16;3.67;;;0.68;;
46651;SDS011;32377;52.182;5.398;2022-08-05T13:51:42;1.73;;;0.77;;
46651;SDS011;32377;52.182;5.398;2022-08-05T13:54:08;6.07;;;0.73;;
46651;SDS011;32377;52.182;5.398;2022-08-05T13:56:33;2.75;;;0.70;;
46651;SDS011;32377;52.182;5.398;2022-08-05T13:58:59;2.95;;;0.60;;
46651;SDS011;32377;52.182;5.398;2022-08-05T14:01:24;8.13;;;0.80;;
46651;SDS011;32377;52.182;5.398;2022-08-05T14:03:50;1.33;;;0.70;;
46651;SDS011;32377;52.182;5.398;2022-08-05T14:06:34;2.15;;;0.70;;
46651;SDS011;32377;52.182;5.398;2022-08-05T14:09:00;4.97;;;0.70;;
46651;SDS011;32377;52.182;5.398;2022-08-05T14:11:26;2.35;;;0.80;;
46651;SDS011;32377;52.182;5.398;2022-08-05T14:13:52;4.00;;;0.88;;
46651;SDS011;32377;52.182;5.398;2022-08-05T14:16:18;3.10;;;0.70;;
46651;SDS011;32377;52.182;5.398;2022-08-05T14:18:44;1.58;;;0.70;;
46651;SDS011;32377;52.182;5.398;2022-08-05T14:21:12;5.53;;;0.85;;
46651;SDS011;32377;52.182;5.398;2022-08-05T14:23:40;2.25;;;0.93;;
46651;SDS011;32377;52.182;5.398;2022-08-05T14:26:05;3.50;;;0.77;;
46651;SDS011;32377;52.182;5.398;2022-08-05T14:28:31;2.72;;;0.73;;
46651;SDS011;32377;52.182;5.398;2022-08-05T14:30:57;2.53;;;0.73;;
46651;SDS011;32377;52.182;5.398;2022-08-05T14:33:23;10.77;;;0.88;;
46651;SDS011;32377;52.182;5.398;2022-08-05T14:35:49;2.28;;;0.73;;
46651;SDS011;32377;52.182;5.398;2022-08-05T14:38:15;3.10;;;0.70;;
46651;SDS011;32377;52.182;5.398;2022-08-05T14:40:41;2.15;;;0.80;;
46651;SDS011;32377;52.182;5.398;2022-08-05T14:43:06;3.35;;;0.68;;
46651;SDS011;32377;52.182;5.398;2022-08-05T14:45:32;3.10;;;0.73;;
46651;SDS011;32377;52.182;5.398;2022-08-05T14:47:57;4.80;;;0.77;;
46651;SDS011;32377;52.182;5.398;2022-08-05T14:50:23;3.15;;;0.70;;
46651;SDS011;32377;52.182;5.398;2022-08-05T14:52:48;1.58;;;0.70;;
46651;SDS011;32377;52.182;5.398;2022-08-05T14:55:14;4.15;;;0.93;;
46651;SDS011;32377;52.182;5.398;2022-08-05T14:57:40;2.50;;;0.60;;
46651;SDS011;32377;52.182;5.398;2022-08-05T15:00:08;2.75;;;0.52;;
46651;SDS011;32377;52.182;5.398;2022-08-05T15:02:34;4.30;;;0.82;;
46651;SDS011;32377;52.182;5.398;2022-08-05T15:05:00;4.35;;;0.80;;
46651;SDS011;32377;52.182;5.398;2022-08-05T15:07:25;2.88;;;0.70;;
46651;SDS011;32377;52.182;5.398;2022-08-05T15:09:51;2.15;;;0.45;;
46651;SDS011;32377;52.182;5.398;2022-08-05T15:12:16;2.35;;;0.68;;
46651;SDS011;32377;52.182;5.398;2022-08-05T15:14:42;5.55;;;0.70;;
46651;SDS011;32377;52.182;5.398;2022-08-05T15:17:09;3.03;;;0.80;;
46651;SDS011;32377;52.182;5.398;2022-08-05T15:19:37;4.40;;;0.80;;
46651;SDS011;32377;52.182;5.398;2022-08-05T15:22:02;5.50;;;1.00;;
46651;SDS011;32377;52.182;5.398;2022-08-05T15:24:28;4.55;;;0.80;;
46651;SDS011;32377;52.182;5.398;2022-08-05T15:26:54;2.97;;;0.98;;
46651;SDS011;32377;52.182;5.398;2022-08-05T15:29:19;2.85;;;0.80;;
46651;SDS011;32377;52.182;5.398;2022-08-05T15:31:45;3.63;;;0.93;;
46651;SDS011;32377;52.182;5.398;2022-08-05T15:34:11;2.90;;;0.85;;
46651;SDS011;32377;52.182;5.398;2022-08-05T15:36:36;4.82;;;0.80;;